createdAt,value
2019-04-22T00:01:40.138Z,16.10
2019-04-22T00:04:15.525Z,11.00
2019-04-22T00:07:05.243Z,11.85
2019-04-22T00:09:38.875Z,12.75
2019-04-22T00:12:16.506Z,14.53
2019-04-22T00:14:37.298Z,16.37
2019-04-22T00:17:18.527Z,12.18
2019-04-22T00:19:45.726Z,12.35
2019-04-22T00:22:17.929Z,12.98
2019-04-22T00:24:38.593Z,13.13
2019-04-22T00:27:14.390Z,13.70
2019-04-22T00:32:30.510Z,11.60
2019-04-22T00:35:03.915Z,12.65
2019-04-22T00:37:41.074Z,14.85
2019-04-22T00:40:07.241Z,14.73
2019-04-22T00:42:35.452Z,11.20
2019-04-22T00:45:07.946Z,11.90
2019-04-22T00:47:38.013Z,14.75
2019-04-22T00:57:42.610Z,12.25
2019-04-22T01:00:11.944Z,11.35
2019-04-22T01:02:41.636Z,13.58
2019-04-22T01:05:15.104Z,11.70
2019-04-22T01:07:35.603Z,14.20
2019-04-22T01:10:11.676Z,10.80
2019-04-22T01:12:39.607Z,12.85
2019-04-22T01:15:14.837Z,11.83
2019-04-22T01:17:44.765Z,11.43
2019-04-22T01:20:43.578Z,11.53
2019-04-22T01:22:38.361Z,14.03
2019-04-22T01:25:14.692Z,17.12
2019-04-22T01:27:39.242Z,10.72
2019-04-22T01:30:08.474Z,17.90
2019-04-22T01:32:34.053Z,16.57
2019-04-22T01:35:08.450Z,12.63
2019-04-22T01:37:46.058Z,10.03
2019-04-22T01:40:28.136Z,12.58
2019-04-22T01:42:57.576Z,14.58
2019-04-22T01:45:26.469Z,11.57
2019-04-22T01:48:10.471Z,12.37
2019-04-22T01:50:29.307Z,11.28
2019-04-22T01:53:00.939Z,12.90
2019-04-22T01:57:53.676Z,15.90
2019-04-22T02:00:15.246Z,10.60
2019-04-22T02:02:59.150Z,10.43
2019-04-22T02:05:26.792Z,13.05
2019-04-22T02:07:56.125Z,11.68
2019-04-22T02:10:34.649Z,12.07
2019-04-22T02:13:02.017Z,14.15
2019-04-22T02:15:27.844Z,12.13
2019-04-22T02:18:01.304Z,13.80
2019-04-22T02:20:26.756Z,11.65
2019-04-22T02:26:25.325Z,12.45
2019-04-22T02:36:22.861Z,13.20
2019-04-22T02:51:22.699Z,12.05
2019-04-22T02:56:27.603Z,12.93
2019-04-22T02:59:12.250Z,13.18
2019-04-22T03:04:06.798Z,12.40
2019-04-22T03:07:16.472Z,19.12
2019-04-22T03:11:25.386Z,16.20
2019-04-22T03:16:33.177Z,18.05
2019-04-22T03:19:02.493Z,17.70
2019-04-22T03:21:24.173Z,13.30
2019-04-22T03:26:35.178Z,13.65
2019-04-22T03:28:54.861Z,12.47
2019-04-22T03:35:09.674Z,12.93
2019-04-22T03:44:38.597Z,12.85
2019-04-22T03:47:11.556Z,13.50
2019-04-22T03:59:33.458Z,12.95
2019-04-22T04:07:11.540Z,15.80
2019-04-22T04:09:33.861Z,14.50
2019-04-22T04:17:02.333Z,14.93
2019-04-22T04:19:45.942Z,18.37
2019-04-22T04:22:15.939Z,15.85
2019-04-22T04:24:48.530Z,14.85
2019-04-22T04:27:34.640Z,16.93
2019-04-22T04:32:25.100Z,13.83
2019-04-22T04:34:54.542Z,14.85
2019-04-22T04:37:25.191Z,14.28
2019-04-22T04:39:43.384Z,12.68
2019-04-22T04:42:16.124Z,13.53
2019-04-22T04:44:59.203Z,12.93
2019-04-22T04:47:11.481Z,14.18
2019-04-22T04:49:48.435Z,13.05
2019-04-22T04:52:19.707Z,15.35
2019-04-22T04:54:44.502Z,14.20
2019-04-22T04:57:07.521Z,11.63
2019-04-22T05:00:03.800Z,13.78
2019-04-22T05:02:17.540Z,13.38
2019-04-22T05:05:06.816Z,11.03
2019-04-22T05:07:36.090Z,13.43
2019-04-22T05:09:59.856Z,10.65
2019-04-22T05:12:45.359Z,11.45
2019-04-22T05:15:09.074Z,11.10
2019-04-22T05:17:41.214Z,12.30
2019-04-22T05:20:05.263Z,11.45
2019-04-22T05:22:33.647Z,12.53
2019-04-22T05:25:09.144Z,11.20
2019-04-22T05:27:34.340Z,13.38
2019-04-22T05:30:19.850Z,11.95
2019-04-22T05:40:17.709Z,9.80
2019-04-22T05:42:35.624Z,13.68
2019-04-22T05:45:10.239Z,11.63
2019-04-22T05:47:42.259Z,10.40
2019-04-22T05:50:07.822Z,10.53
2019-04-22T05:52:40.459Z,9.65
2019-04-22T05:55:16.111Z,8.98
2019-04-22T05:57:42.659Z,10.05
2019-04-22T06:00:18.260Z,10.68
2019-04-22T06:05:17.504Z,11.90
2019-04-22T06:07:47.220Z,9.85
2019-04-22T06:12:43.308Z,8.18
2019-04-22T06:15:22.283Z,10.70
2019-04-22T06:17:59.022Z,8.43
2019-04-22T06:20:23.775Z,8.80
2019-04-22T06:25:27.664Z,8.93
2019-04-22T06:27:54.099Z,8.65
2019-04-22T06:30:44.029Z,9.38
2019-04-22T06:33:01.151Z,9.28
2019-04-22T06:38:15.971Z,9.78
2019-04-22T06:40:28.940Z,8.60
2019-04-22T06:45:28.821Z,7.83
2019-04-22T06:48:09.758Z,7.30
2019-04-22T06:50:38.481Z,7.08
2019-04-22T06:53:02.634Z,11.57
2019-04-22T06:55:38.985Z,6.75
2019-04-22T06:58:04.952Z,8.93
2019-04-22T07:00:36.948Z,8.35
2019-04-22T07:03:34.638Z,6.67
2019-04-22T07:05:44.574Z,6.80
2019-04-22T07:08:28.388Z,13.28
2019-04-22T07:10:51.858Z,8.18
2019-04-22T07:13:11.522Z,7.45
2019-04-22T07:18:19.813Z,8.85
2019-04-22T07:20:44.304Z,8.73
2019-04-22T07:23:24.741Z,9.43
2019-04-22T07:25:49.280Z,8.10
2019-04-22T07:28:15.801Z,11.12
2019-04-22T07:30:44.619Z,7.28
2019-04-22T07:33:30.506Z,8.50
2019-04-22T07:38:23.805Z,9.05
2019-04-22T07:40:59.505Z,6.47
2019-04-22T07:45:51.850Z,6.05
2019-04-22T07:51:07.596Z,6.97
2019-04-22T07:53:21.615Z,7.47
2019-04-22T07:55:53.272Z,6.00
2019-04-22T07:58:27.418Z,7.22
2019-04-22T08:00:57.757Z,5.83
2019-04-22T08:03:31.955Z,6.92
2019-04-22T08:06:08.669Z,5.92
2019-04-22T08:08:25.794Z,5.95
2019-04-22T08:10:57.794Z,6.25
2019-04-22T08:13:24.834Z,8.05
2019-04-22T08:16:01.199Z,6.70
2019-04-22T08:18:29.034Z,5.95
2019-04-22T08:20:58.394Z,6.03
2019-04-22T08:23:31.669Z,5.42
2019-04-22T08:25:55.706Z,6.05
2019-04-22T08:28:34.468Z,6.05
2019-04-22T08:31:02.135Z,6.75
2019-04-22T08:33:29.281Z,6.87
2019-04-22T08:36:10.489Z,6.35
2019-04-22T08:41:23.361Z,6.62
2019-04-22T08:44:18.717Z,6.35
2019-04-22T08:46:49.032Z,5.45
2019-04-22T08:49:16.154Z,6.37
2019-04-22T08:51:40.211Z,7.03
2019-04-22T08:54:05.052Z,7.17
2019-04-22T08:59:10.445Z,7.05
2019-04-22T09:01:34.348Z,6.78
2019-04-22T09:06:56.640Z,8.08
2019-04-22T09:09:06.542Z,7.40
2019-04-22T09:11:41.961Z,8.65
2019-04-22T09:14:11.218Z,6.70
2019-04-22T09:16:46.334Z,6.95
2019-04-22T09:21:43.304Z,6.72
2019-04-22T09:24:10.556Z,5.65
2019-04-22T09:26:43.596Z,5.28
2019-04-22T09:29:14.637Z,5.45
2019-04-22T09:32:01.685Z,5.17
2019-04-22T09:34:06.795Z,5.42
2019-04-22T09:36:42.062Z,4.87
2019-04-22T09:39:19.299Z,5.12
2019-04-22T09:41:48.249Z,7.95
2019-04-22T09:44:10.700Z,5.25
2019-04-22T09:46:43.912Z,6.33
2019-04-22T09:51:46.184Z,6.10
2019-04-22T09:54:21.740Z,6.80
2019-04-22T09:56:43.436Z,5.97
2019-04-22T09:59:13.976Z,6.42
2019-04-22T10:01:47.522Z,8.55
2019-04-22T10:04:10.086Z,8.25
2019-04-22T10:06:40.605Z,9.45
2019-04-22T10:09:37.336Z,5.20
2019-04-22T10:11:47.661Z,5.35
2019-04-22T10:14:18.933Z,7.45
2019-04-22T10:17:06.805Z,8.98
2019-04-22T10:19:18.340Z,7.75
2019-04-22T10:22:12.231Z,6.25
2019-04-22T10:24:17.029Z,5.08
2019-04-22T10:29:20.169Z,5.60
2019-04-22T10:31:49.411Z,5.95
2019-04-22T10:34:09.286Z,8.10
2019-04-22T10:36:25.649Z,6.12
2019-04-22T10:38:54.949Z,9.25
2019-04-22T10:41:23.510Z,6.25
2019-04-22T10:43:52.927Z,6.75
2019-04-22T10:46:22.181Z,7.72
2019-04-22T10:48:52.631Z,6.00
2019-04-22T10:51:22.335Z,9.20
2019-04-22T10:53:51.282Z,8.55
2019-04-22T10:56:21.026Z,10.88
2019-04-22T10:58:50.723Z,6.53
2019-04-22T11:01:19.395Z,7.70
2019-04-22T11:03:49.071Z,10.58
2019-04-22T11:06:19.153Z,7.67
2019-04-22T11:08:52.859Z,6.35
2019-04-22T11:11:30.105Z,5.80
2019-04-22T11:13:49.605Z,5.22
2019-04-22T11:16:19.360Z,5.78
2019-04-22T11:18:47.966Z,4.28
2019-04-22T11:21:17.999Z,5.87
2019-04-22T11:23:46.938Z,6.58
2019-04-22T11:26:15.640Z,10.75
2019-04-22T11:28:45.433Z,4.83
2019-04-22T11:31:14.739Z,5.12
2019-04-22T11:33:44.866Z,5.40
2019-04-22T11:36:15.622Z,5.33
2019-04-22T11:38:49.230Z,5.03
2019-04-22T11:41:14.830Z,4.75
2019-04-22T11:43:45.095Z,7.47
2019-04-22T11:46:15.525Z,5.15
2019-04-22T11:48:45.504Z,7.72
2019-04-22T11:51:25.981Z,5.83
2019-04-22T11:53:54.863Z,6.03
2019-04-22T11:56:23.395Z,4.25
2019-04-22T11:58:52.920Z,6.28
2019-04-22T12:01:21.976Z,5.37
2019-04-22T12:03:51.786Z,3.95
2019-04-22T12:06:22.162Z,4.33
2019-04-22T12:08:51.935Z,8.93
2019-04-22T12:11:20.780Z,4.20
2019-04-22T12:13:49.251Z,5.17
2019-04-22T12:16:19.049Z,7.03
2019-04-22T12:18:49.216Z,6.08
2019-04-22T12:21:19.266Z,6.90
2019-04-22T12:23:48.696Z,7.58
2019-04-22T12:26:19.493Z,5.00
2019-04-22T12:28:49.016Z,4.53
2019-04-22T12:31:17.932Z,3.87
2019-04-22T12:33:47.643Z,5.20
2019-04-22T12:36:16.397Z,4.78
2019-04-22T12:38:45.285Z,8.08
2019-04-22T12:41:14.507Z,6.15
2019-04-22T12:43:45.058Z,4.80
2019-04-22T12:46:16.231Z,7.08
2019-04-22T12:48:46.877Z,4.78
2019-04-22T12:51:15.481Z,5.40
2019-04-22T12:53:44.574Z,4.30
2019-04-22T12:56:15.413Z,7.22
2019-04-22T12:58:45.804Z,6.67
2019-04-22T13:01:15.165Z,4.35
2019-04-22T13:03:44.656Z,4.45
2019-04-22T13:06:14.246Z,9.65
2019-04-22T13:08:43.565Z,7.50
2019-04-22T13:11:17.541Z,6.53
2019-04-22T13:13:42.926Z,7.42
2019-04-22T13:16:13.270Z,7.83
2019-04-22T13:18:49.353Z,5.37
2019-04-22T13:21:13.086Z,5.10
2019-04-22T13:23:41.603Z,6.08
2019-04-22T13:26:10.719Z,3.52
2019-04-22T13:28:39.259Z,3.55
2019-04-22T13:31:07.981Z,2.92
2019-04-22T13:33:36.965Z,7.50
2019-04-22T13:36:05.974Z,5.22
2019-04-22T13:38:35.368Z,3.58
2019-04-22T13:41:32.917Z,4.00
2019-04-22T13:43:55.785Z,3.70
2019-04-22T13:46:24.306Z,3.72
2019-04-22T13:49:25.580Z,5.00
2019-04-22T13:52:15.431Z,3.50
2019-04-22T13:56:43.841Z,5.22
2019-04-22T13:59:04.659Z,7.12
2019-04-22T14:01:25.800Z,5.87
2019-04-22T14:03:58.899Z,6.70
2019-04-22T14:06:28.931Z,4.62
2019-04-22T14:08:59.032Z,2.67
2019-04-22T14:11:37.619Z,6.90
2019-04-22T14:13:58.796Z,5.85
2019-04-22T14:16:27.294Z,5.08
2019-04-22T14:18:56.104Z,4.30
2019-04-22T14:21:24.987Z,4.40
2019-04-22T14:23:53.757Z,3.27
2019-04-22T14:26:23.041Z,4.03
2019-04-22T14:28:51.714Z,2.65
2019-04-22T14:31:20.419Z,3.60
2019-04-22T14:33:53.560Z,5.05
2019-04-22T14:36:19.451Z,4.92
2019-04-22T14:38:48.352Z,6.78
2019-04-22T14:41:35.771Z,5.65
2019-04-22T14:44:49.588Z,3.83
2019-04-22T14:46:53.590Z,5.72
2019-04-22T14:49:10.638Z,5.05
2019-04-22T14:51:42.800Z,2.85
2019-04-22T14:54:05.336Z,2.80
2019-04-22T14:56:20.171Z,4.20
2019-04-22T14:58:49.129Z,3.20
2019-04-22T15:01:19.080Z,3.27
2019-04-22T15:03:48.387Z,3.30
2019-04-22T15:06:18.168Z,4.78
2019-04-22T15:08:47.069Z,2.37
2019-04-22T15:11:17.105Z,4.30
2019-04-22T15:13:47.166Z,2.62
2019-04-22T15:16:23.802Z,6.60
2019-04-22T15:19:04.091Z,3.22
2019-04-22T15:21:32.733Z,3.10
2019-04-22T15:24:04.508Z,3.40
2019-04-22T15:26:34.387Z,2.25
2019-04-22T15:29:03.232Z,4.28
2019-04-22T15:31:31.784Z,7.25
2019-04-22T15:34:02.669Z,5.50
2019-04-22T15:36:32.411Z,2.55
2019-04-22T15:39:02.855Z,2.70
2019-04-22T15:41:32.668Z,3.12
2019-04-22T15:44:01.848Z,4.78
2019-04-22T15:46:31.929Z,3.90
2019-04-22T15:49:01.990Z,4.62
2019-04-22T15:51:31.643Z,10.30
2019-04-22T15:54:01.368Z,4.08
2019-04-22T15:56:30.709Z,5.50
2019-04-22T15:58:59.747Z,5.03
2019-04-22T16:01:33.423Z,3.40
2019-04-22T16:03:58.921Z,2.45
2019-04-22T16:06:28.066Z,4.35
2019-04-22T16:08:59.665Z,7.37
2019-04-22T16:11:27.686Z,2.85
2019-04-22T16:13:57.184Z,5.03
2019-04-22T16:16:25.897Z,3.00
2019-04-22T16:18:54.649Z,2.60
2019-04-22T16:21:33.832Z,4.30
2019-04-22T16:24:02.611Z,3.62
2019-04-22T16:26:40.165Z,2.35
2019-04-22T16:29:11.674Z,3.98
2019-04-22T16:31:40.255Z,5.65
2019-04-22T16:34:09.495Z,4.05
2019-04-22T16:36:38.800Z,4.83
2019-04-22T16:39:11.008Z,4.37
2019-04-22T16:41:39.681Z,3.30
2019-04-22T16:44:09.056Z,4.53
2019-04-22T16:46:37.680Z,5.40
2019-04-22T16:49:07.574Z,5.47
2019-04-22T16:51:36.241Z,5.75
2019-04-22T16:54:06.470Z,4.65
2019-04-22T16:56:37.098Z,6.62
2019-04-22T16:59:06.672Z,4.75
2019-04-22T17:04:20.797Z,7.72
2019-04-22T17:06:50.868Z,4.50
2019-04-22T17:09:19.817Z,4.33
2019-04-22T17:11:49.886Z,3.75
2019-04-22T17:14:27.245Z,4.60
2019-04-22T17:16:50.616Z,4.37
2019-04-22T17:19:19.540Z,3.12
2019-04-22T17:21:49.839Z,8.50
2019-04-22T17:24:19.496Z,3.58
2019-04-22T17:26:48.500Z,4.60
2019-04-22T17:29:18.576Z,4.87
2019-04-22T17:31:50.961Z,7.47
2019-04-22T17:34:17.856Z,6.03
2019-04-22T17:36:46.421Z,9.00
2019-04-22T17:39:47.789Z,3.75
2019-04-22T17:42:25.395Z,9.73
2019-04-22T17:45:03.152Z,7.62
2019-04-22T17:47:28.766Z,5.97
2019-04-22T17:50:10.058Z,6.35
2019-04-22T17:52:38.914Z,5.40
2019-04-22T17:55:07.573Z,5.65
2019-04-22T17:57:33.017Z,4.10
2019-04-22T18:00:06.186Z,6.45
2019-04-22T18:02:35.693Z,4.08
2019-04-22T18:04:53.895Z,7.25
2019-04-22T18:07:38.604Z,9.00
2019-04-22T18:12:43.828Z,3.72
2019-04-22T18:15:10.060Z,5.78
2019-04-22T18:17:41.254Z,3.77
2019-04-22T18:20:04.334Z,9.58
2019-04-22T18:22:33.071Z,8.00
2019-04-22T18:25:03.506Z,8.73
2019-04-22T18:27:47.243Z,6.53
2019-04-22T18:30:03.919Z,6.90
2019-04-22T18:32:38.186Z,5.55
2019-04-22T18:35:11.812Z,10.23
2019-04-22T18:37:46.978Z,4.65
2019-04-22T18:40:15.099Z,11.22
2019-04-22T18:42:45.785Z,3.98
2019-04-22T18:45:29.687Z,6.33
2019-04-22T18:47:38.960Z,11.50
2019-04-22T18:50:10.585Z,9.63
2019-04-22T18:52:49.282Z,7.78
2019-04-22T18:55:22.108Z,8.15
2019-04-22T18:57:53.443Z,7.10
2019-04-22T19:00:23.102Z,8.40
2019-04-22T19:02:58.963Z,9.40
2019-04-22T19:05:43.772Z,9.98
2019-04-22T19:15:59.453Z,6.12
2019-04-22T19:18:24.456Z,5.20
2019-04-22T19:20:51.839Z,7.10
2019-04-22T19:23:24.214Z,8.78
2019-04-22T19:25:42.350Z,7.95
2019-04-22T19:28:27.660Z,4.15
2019-04-22T19:30:56.776Z,9.40
2019-04-22T19:33:23.921Z,9.25
2019-04-22T19:35:43.543Z,9.03
2019-04-22T19:38:13.269Z,9.43
2019-04-22T19:41:00.626Z,4.40
2019-04-22T19:43:22.930Z,4.08
2019-04-22T19:45:48.350Z,7.83
2019-04-22T19:48:32.945Z,8.55
2019-04-22T19:51:15.813Z,8.13
2019-04-22T19:53:47.079Z,7.20
2019-04-22T19:56:11.490Z,8.43
2019-04-22T19:58:37.463Z,9.03
2019-04-22T20:01:31.486Z,9.75
2019-04-22T20:04:19.794Z,9.55
2019-04-22T20:06:45.574Z,9.40
2019-04-22T20:09:20.623Z,12.85
2019-04-22T20:11:43.685Z,10.98
2019-04-22T20:14:17.057Z,7.85
2019-04-22T20:16:37.510Z,10.03
2019-04-22T20:19:19.238Z,8.20
2019-04-22T20:21:50.144Z,13.30
2019-04-22T20:24:06.684Z,11.85
2019-04-22T20:26:49.973Z,11.83
2019-04-22T20:29:24.303Z,11.73
2019-04-22T20:31:49.715Z,13.35
2019-04-22T20:34:22.374Z,12.98
2019-04-22T20:39:20.391Z,10.55
2019-04-22T20:41:54.974Z,10.50
2019-04-22T20:44:30.709Z,8.60
2019-04-22T20:46:48.890Z,11.53
2019-04-22T20:49:30.580Z,9.13
2019-04-22T20:54:22.982Z,7.83
2019-04-22T20:56:53.339Z,16.85
2019-04-22T20:59:23.975Z,12.37
2019-04-22T21:01:55.323Z,10.88
2019-04-22T21:04:19.792Z,10.90
2019-04-22T21:07:01.148Z,10.53
2019-04-22T21:09:27.316Z,14.90
2019-04-22T21:11:56.540Z,13.40
2019-04-22T21:14:27.472Z,15.98
2019-04-22T21:17:00.758Z,13.10
2019-04-22T21:19:41.681Z,13.38
2019-04-22T21:22:03.704Z,15.25
2019-04-22T21:24:32.759Z,12.95
2019-04-22T21:27:08.186Z,12.00
2019-04-22T21:29:28.124Z,16.67
2019-04-22T21:32:01.296Z,14.45
2019-04-22T21:34:39.083Z,16.07
2019-04-22T21:37:07.635Z,12.95
2019-04-22T21:39:30.788Z,13.38
2019-04-22T21:41:58.831Z,16.70
2019-04-22T21:44:32.702Z,13.45
2019-04-22T21:47:12.177Z,12.73
2019-04-22T21:49:35.899Z,16.00
2019-04-22T21:52:07.886Z,14.60
2019-04-22T21:54:42.957Z,17.77
2019-04-22T21:57:19.011Z,15.00
2019-04-22T21:59:35.782Z,19.70
2019-04-22T22:04:49.059Z,14.45
2019-04-22T22:07:07.437Z,13.10
2019-04-22T22:09:47.518Z,13.43
2019-04-22T22:12:18.208Z,14.03
2019-04-22T22:15:00.358Z,16.35
2019-04-22T22:17:22.579Z,12.78
2019-04-22T22:19:54.509Z,14.38
2019-04-22T22:22:42.112Z,18.15
2019-04-22T22:24:58.347Z,16.93
2019-04-22T22:27:28.286Z,13.48
2019-04-22T22:30:06.847Z,15.60
2019-04-22T22:32:32.444Z,13.10
2019-04-22T22:35:01.745Z,13.40
2019-04-22T22:37:22.112Z,14.50
2019-04-22T22:39:48.437Z,11.45
2019-04-22T22:42:17.774Z,14.00
2019-04-22T22:44:44.677Z,11.25
2019-04-22T22:47:30.055Z,13.68
2019-04-22T22:50:05.899Z,14.03
2019-04-22T22:52:51.777Z,13.25
2019-04-22T22:55:06.916Z,13.45
2019-04-22T22:57:39.939Z,11.95
2019-04-22T23:00:02.133Z,15.30
2019-04-22T23:02:45.155Z,14.23
2019-04-22T23:05:04.202Z,13.18
2019-04-22T23:07:37.531Z,12.90
2019-04-22T23:10:05.037Z,14.45
2019-04-22T23:12:46.537Z,16.48
2019-04-22T23:15:07.879Z,10.82
2019-04-22T23:17:23.568Z,14.53
2019-04-22T23:19:50.340Z,13.38
2019-04-22T23:22:23.480Z,18.20
2019-04-22T23:25:07.744Z,11.90
2019-04-22T23:27:38.784Z,13.68
2019-04-22T23:30:06.553Z,12.03
2019-04-22T23:32:35.497Z,12.65
2019-04-22T23:35:19.111Z,12.80
2019-04-22T23:37:47.623Z,12.68
2019-04-22T23:40:22.067Z,13.70
2019-04-22T23:42:56.399Z,15.65
2019-04-22T23:45:21.444Z,16.05
2019-04-22T23:47:41.148Z,14.63
2019-04-22T23:50:24.437Z,13.03
2019-04-22T23:52:53.347Z,13.55
2019-04-22T23:55:26.043Z,13.93
2019-04-22T23:57:56.780Z,13.20
